Kaumakani, HI (96747)

5:11 AM HST on July 29, 2016 (GMT -1000)
Waimea, Hi 96796 | | Change Station

Elev 60 ft 21.95 °N, 159.67 °W | Updated 56 seconds ago

Clear
Clear
71.3 °F
Feels Like 74 °F
N
5.0
Wind Variable Wind from ENE
Gusts 5.0 mph

Today
High -- | Low -- °F
--% Chance of Precip.
Yesterday
High -- | Low -- °F
Precip. -- in
Pressure 30.03 in
Visibility -9999.0 miles
Clouds Clear
Heat Index 74 °F
Dew Point 62 °F
Humidity 73%
Rainfall 0.00 in
Snow Depth Not available.
6:10 AM 7:19 PM
Waning Crescent, 21% visible
METAR PHBK 291456Z AUTO 13005KT CLR 23/16 A3002 RMK AO2 SLP169 T02280161 55002
Pressure 30.03 in
Visibility -9999.0 miles
Clouds Clear
Heat Index 74 °F
Dew Point 62 °F
Humidity 73%
Rainfall 0.00 in
Snow Depth Not available.
6:10 AM 7:19 PM
Waning Crescent, 21% visible
METAR PHBK 291456Z AUTO 13005KT CLR 23/16 A3002 RMK AO2 SLP169 T02280161 55002

10-Day Weather Forecast

Almanac

Astronomy

Jul. 29, 2016 Rise Set
Actual Time
Civil Twilight
Nautical Twilight
Astronomical Twilight
Moon
Length of Visible Light
Length of Day
Tomorrow will be .
, % of the Moon is Illuminated

Today's Extremes

State Highs State Lows

Community

WunderPhotos

Upload Photos

1,928,345 photos uploaded!

WunderBlog® & News

Nearby

Air Quality

  Air Quality AQ Index Pollutant
Not available.

Snow Depth

Station Depth Elevation

Earthquake Activity

City Distance Mag. Time & Date
Minimum magnitude displayed is 2.5.

Coastal Water Temperatures

Place Temperature

Stations

Nearby Weather Stations

Station Location Temp. Windchill Dew Point Humidity Wind Precip. Elev Updated Type
                   

Watches & Warnings

There are currently no watches in effect.